sensor_id;sensor_type;location;lat;lon;timestamp;P1;durP1;ratioP1;P2;durP2;ratioP2
64560;SDS011;50960;46.838;16.838;2023-05-17T14:08:58;1.92;;;1.35;;
64560;SDS011;50960;46.838;16.838;2023-05-17T14:11:25;1.33;;;1.13;;
64560;SDS011;50960;46.838;16.838;2023-05-17T14:13:51;3.50;;;2.10;;
64560;SDS011;50960;46.838;16.838;2023-05-17T14:16:18;1.85;;;1.63;;
64560;SDS011;50960;46.838;16.838;2023-05-17T14:18:46;2.28;;;1.80;;
64560;SDS011;50960;46.838;16.838;2023-05-17T14:21:19;2.80;;;2.08;;
64560;SDS011;50960;46.838;16.838;2023-05-17T14:23:58;2.00;;;1.77;;
64560;SDS011;50960;46.838;16.838;2023-05-17T14:26:25;1.38;;;1.27;;
64560;SDS011;50960;46.838;16.838;2023-05-17T14:28:52;1.50;;;1.30;;
64560;SDS011;50960;46.838;16.838;2023-05-17T14:31:19;1.77;;;1.48;;
64560;SDS011;50960;46.838;16.838;2023-05-17T14:33:45;1.92;;;1.70;;
64560;SDS011;50960;46.838;16.838;2023-05-17T14:36:12;1.73;;;1.40;;
64560;SDS011;50960;46.838;16.838;2023-05-17T14:38:38;2.63;;;1.70;;
64560;SDS011;50960;46.838;16.838;2023-05-17T14:41:05;2.38;;;1.60;;
64560;SDS011;50960;46.838;16.838;2023-05-17T14:43:31;3.80;;;2.40;;
64560;SDS011;50960;46.838;16.838;2023-05-17T14:45:57;2.47;;;1.60;;
64560;SDS011;50960;46.838;16.838;2023-05-17T14:48:24;1.48;;;1.33;;
64560;SDS011;50960;46.838;16.838;2023-05-17T14:50:51;2.13;;;1.67;;
64560;SDS011;50960;46.838;16.838;2023-05-17T14:53:18;1.88;;;1.77;;
64560;SDS011;50960;46.838;16.838;2023-05-17T14:55:44;3.35;;;1.45;;
64560;SDS011;50960;46.838;16.838;2023-05-17T14:58:12;2.00;;;1.40;;
64560;SDS011;50960;46.838;16.838;2023-05-17T15:00:38;1.20;;;1.00;;
64560;SDS011;50960;46.838;16.838;2023-05-17T15:03:09;2.05;;;1.73;;
64560;SDS011;50960;46.838;16.838;2023-05-17T15:05:35;1.52;;;1.20;;
64560;SDS011;50960;46.838;16.838;2023-05-17T15:08:03;1.48;;;1.38;;
64560;SDS011;50960;46.838;16.838;2023-05-17T15:10:29;1.58;;;1.17;;
64560;SDS011;50960;46.838;16.838;2023-05-17T15:12:56;1.15;;;1.13;;
64560;SDS011;50960;46.838;16.838;2023-05-17T15:15:22;3.35;;;1.30;;
64560;SDS011;50960;46.838;16.838;2023-05-17T15:17:49;1.55;;;1.45;;
64560;SDS011;50960;46.838;16.838;2023-05-17T15:20:16;3.72;;;1.23;;
64560;SDS011;50960;46.838;16.838;2023-05-17T15:22:44;1.40;;;1.27;;
64560;SDS011;50960;46.838;16.838;2023-05-17T15:25:11;1.50;;;1.40;;
64560;SDS011;50960;46.838;16.838;2023-05-17T15:27:39;1.48;;;1.38;;
64560;SDS011;50960;46.838;16.838;2023-05-17T15:30:05;1.33;;;1.23;;
64560;SDS011;50960;46.838;16.838;2023-05-17T15:32:32;1.20;;;1.10;;
64560;SDS011;50960;46.838;16.838;2023-05-17T15:35:02;2.17;;;1.10;;
64560;SDS011;50960;46.838;16.838;2023-05-17T15:37:30;1.48;;;1.38;;
64560;SDS011;50960;46.838;16.838;2023-05-17T15:39:58;1.73;;;1.30;;
64560;SDS011;50960;46.838;16.838;2023-05-17T15:42:32;3.15;;;1.10;;
64560;SDS011;50960;46.838;16.838;2023-05-17T15:45:02;2.80;;;1.25;;
64560;SDS011;50960;46.838;16.838;2023-05-17T15:47:29;2.10;;;1.40;;
64560;SDS011;50960;46.838;16.838;2023-05-17T15:49:55;1.60;;;1.50;;
64560;SDS011;50960;46.838;16.838;2023-05-17T15:52:22;1.50;;;1.40;;
64560;SDS011;50960;46.838;16.838;2023-05-17T15:54:49;2.35;;;1.55;;
64560;SDS011;50960;46.838;16.838;2023-05-17T15:57:16;1.42;;;1.33;;
64560;SDS011;50960;46.838;16.838;2023-05-17T15:59:43;1.08;;;1.08;;
64560;SDS011;50960;46.838;16.838;2023-05-17T16:02:09;1.33;;;1.15;;
64560;SDS011;50960;46.838;16.838;2023-05-17T16:04:36;1.73;;;1.60;;
64560;SDS011;50960;46.838;16.838;2023-05-17T16:07:02;1.85;;;1.42;;
64560;SDS011;50960;46.838;16.838;2023-05-17T16:09:29;1.40;;;1.30;;
64560;SDS011;50960;46.838;16.838;2023-05-17T16:11:55;1.58;;;1.48;;
64560;SDS011;50960;46.838;16.838;2023-05-17T16:14:21;1.35;;;1.25;;
64560;SDS011;50960;46.838;16.838;2023-05-17T16:16:48;1.50;;;1.33;;
64560;SDS011;50960;46.838;16.838;2023-05-17T16:19:14;1.05;;;1.00;;
64560;SDS011;50960;46.838;16.838;2023-05-17T16:21:40;1.77;;;1.33;;
64560;SDS011;50960;46.838;16.838;2023-05-17T16:24:07;2.35;;;1.63;;
64560;SDS011;50960;46.838;16.838;2023-05-17T16:26:34;1.33;;;1.23;;
64560;SDS011;50960;46.838;16.838;2023-05-17T16:29:02;2.78;;;1.42;;
64560;SDS011;50960;46.838;16.838;2023-05-17T16:31:29;2.63;;;1.88;;
64560;SDS011;50960;46.838;16.838;2023-05-17T16:33:55;2.55;;;1.65;;
64560;SDS011;50960;46.838;16.838;2023-05-17T16:36:22;1.77;;;1.67;;
64560;SDS011;50960;46.838;16.838;2023-05-17T16:38:49;4.70;;;1.70;;
64560;SDS011;50960;46.838;16.838;2023-05-17T16:41:17;1.77;;;1.60;;
64560;SDS011;50960;46.838;16.838;2023-05-17T16:43:43;2.38;;;1.73;;
64560;SDS011;50960;46.838;16.838;2023-05-17T16:46:09;2.10;;;1.88;;
64560;SDS011;50960;46.838;16.838;2023-05-17T16:48:36;3.88;;;1.90;;
64560;SDS011;50960;46.838;16.838;2023-05-17T16:51:02;1.77;;;1.63;;
64560;SDS011;50960;46.838;16.838;2023-05-17T16:53:29;1.42;;;1.33;;
64560;SDS011;50960;46.838;16.838;2023-05-17T16:55:55;1.48;;;1.38;;
64560;SDS011;50960;46.838;16.838;2023-05-17T16:58:21;1.90;;;1.65;;
64560;SDS011;50960;46.838;16.838;2023-05-17T17:00:48;2.42;;;1.80;;
64560;SDS011;50960;46.838;16.838;2023-05-17T17:03:14;2.30;;;2.10;;
64560;SDS011;50960;46.838;16.838;2023-05-17T17:05:40;1.98;;;1.77;;
64560;SDS011;50960;46.838;16.838;2023-05-17T17:08:07;3.13;;;1.92;;
64560;SDS011;50960;46.838;16.838;2023-05-17T17:10:33;1.52;;;1.42;;
64560;SDS011;50960;46.838;16.838;2023-05-17T17:13:00;2.38;;;1.60;;
64560;SDS011;50960;46.838;16.838;2023-05-17T17:15:26;1.88;;;1.42;;
64560;SDS011;50960;46.838;16.838;2023-05-17T17:17:53;1.70;;;1.52;;
64560;SDS011;50960;46.838;16.838;2023-05-17T17:20:19;2.50;;;2.22;;
64560;SDS011;50960;46.838;16.838;2023-05-17T17:22:46;2.30;;;2.10;;
64560;SDS011;50960;46.838;16.838;2023-05-17T17:25:13;1.40;;;1.30;;
64560;SDS011;50960;46.838;16.838;2023-05-17T17:27:43;1.80;;;1.70;;
64560;SDS011;50960;46.838;16.838;2023-05-17T17:30:10;2.33;;;2.13;;
64560;SDS011;50960;46.838;16.838;2023-05-17T17:32:37;2.25;;;2.05;;
64560;SDS011;50960;46.838;16.838;2023-05-17T17:35:04;2.10;;;1.83;;
64560;SDS011;50960;46.838;16.838;2023-05-17T17:37:31;2.78;;;1.95;;
64560;SDS011;50960;46.838;16.838;2023-05-17T17:39:57;3.25;;;2.03;;
64560;SDS011;50960;46.838;16.838;2023-05-17T17:42:24;2.60;;;2.08;;
64560;SDS011;50960;46.838;16.838;2023-05-17T17:44:50;2.50;;;2.15;;
64560;SDS011;50960;46.838;16.838;2023-05-17T17:47:16;2.30;;;2.10;;
64560;SDS011;50960;46.838;16.838;2023-05-17T17:49:43;3.13;;;2.25;;
64560;SDS011;50960;46.838;16.838;2023-05-17T17:52:10;2.67;;;2.38;;
64560;SDS011;50960;46.838;16.838;2023-05-17T17:54:37;4.88;;;2.40;;
64560;SDS011;50960;46.838;16.838;2023-05-17T17:57:03;5.45;;;3.78;;
64560;SDS011;50960;46.838;16.838;2023-05-17T17:59:29;2.70;;;2.38;;
64560;SDS011;50960;46.838;16.838;2023-05-17T18:01:56;3.40;;;2.63;;
64560;SDS011;50960;46.838;16.838;2023-05-17T18:04:24;2.72;;;2.35;;
64560;SDS011;50960;46.838;16.838;2023-05-17T18:06:51;3.15;;;2.42;;
64560;SDS011;50960;46.838;16.838;2023-05-17T18:09:18;3.30;;;2.35;;
64560;SDS011;50960;46.838;16.838;2023-05-17T18:11:46;2.45;;;2.25;;
64560;SDS011;50960;46.838;16.838;2023-05-17T18:14:13;4.13;;;2.45;;
64560;SDS011;50960;46.838;16.838;2023-05-17T18:16:40;2.15;;;1.90;;
64560;SDS011;50960;46.838;16.838;2023-05-17T18:19:06;3.03;;;2.70;;
64560;SDS011;50960;46.838;16.838;2023-05-17T18:21:32;3.83;;;2.50;;
64560;SDS011;50960;46.838;16.838;2023-05-17T18:23:59;2.30;;;2.10;;
64560;SDS011;50960;46.838;16.838;2023-05-17T18:26:25;3.38;;;2.30;;
64560;SDS011;50960;46.838;16.838;2023-05-17T18:28:52;2.40;;;2.05;;
64560;SDS011;50960;46.838;16.838;2023-05-17T18:31:18;3.33;;;2.17;;
64560;SDS011;50960;46.838;16.838;2023-05-17T18:33:44;2.70;;;1.70;;
64560;SDS011;50960;46.838;16.838;2023-05-17T18:36:11;3.30;;;2.00;;
64560;SDS011;50960;46.838;16.838;2023-05-17T18:38:37;1.88;;;1.77;;
64560;SDS011;50960;46.838;16.838;2023-05-17T18:41:04;3.25;;;2.55;;
64560;SDS011;50960;46.838;16.838;2023-05-17T18:43:30;2.85;;;2.63;;
64560;SDS011;50960;46.838;16.838;2023-05-17T18:45:57;4.50;;;3.00;;
64560;SDS011;50960;46.838;16.838;2023-05-17T18:48:23;2.95;;;2.63;;
64560;SDS011;50960;46.838;16.838;2023-05-17T18:50:49;4.68;;;3.60;;
64560;SDS011;50960;46.838;16.838;2023-05-17T18:53:16;3.88;;;2.70;;
64560;SDS011;50960;46.838;16.838;2023-05-17T18:55:42;4.00;;;2.63;;
64560;SDS011;50960;46.838;16.838;2023-05-17T18:58:08;3.00;;;2.80;;
64560;SDS011;50960;46.838;16.838;2023-05-17T19:00:35;3.03;;;2.30;;
64560;SDS011;50960;46.838;16.838;2023-05-17T19:03:01;3.63;;;2.75;;
64560;SDS011;50960;46.838;16.838;2023-05-17T19:05:28;3.22;;;2.63;;
64560;SDS011;50960;46.838;16.838;2023-05-17T19:07:55;3.30;;;3.00;;
64560;SDS011;50960;46.838;16.838;2023-05-17T19:10:21;2.95;;;2.70;;
64560;SDS011;50960;46.838;16.838;2023-05-17T19:12:48;4.10;;;2.45;;
64560;SDS011;50960;46.838;16.838;2023-05-17T19:15:14;2.95;;;2.60;;
64560;SDS011;50960;46.838;16.838;2023-05-17T19:17:41;3.38;;;2.90;;
64560;SDS011;50960;46.838;16.838;2023-05-17T19:20:08;4.78;;;2.92;;
64560;SDS011;50960;46.838;16.838;2023-05-17T19:22:34;4.25;;;2.70;;
64560;SDS011;50960;46.838;16.838;2023-05-17T19:25:01;3.65;;;2.80;;
64560;SDS011;50960;46.838;16.838;2023-05-17T19:27:28;5.20;;;2.92;;
64560;SDS011;50960;46.838;16.838;2023-05-17T19:29:54;3.80;;;3.22;;
64560;SDS011;50960;46.838;16.838;2023-05-17T19:32:21;2.53;;;2.20;;
64560;SDS011;50960;46.838;16.838;2023-05-17T19:34:47;4.57;;;3.00;;
64560;SDS011;50960;46.838;16.838;2023-05-17T19:37:14;5.25;;;2.40;;
64560;SDS011;50960;46.838;16.838;2023-05-17T19:39:40;4.05;;;2.55;;
64560;SDS011;50960;46.838;16.838;2023-05-17T19:42:07;2.47;;;2.15;;
64560;SDS011;50960;46.838;16.838;2023-05-17T19:44:33;2.88;;;2.22;;
64560;SDS011;50960;46.838;16.838;2023-05-17T19:46:59;2.65;;;2.22;;
64560;SDS011;50960;46.838;16.838;2023-05-17T19:49:26;3.63;;;2.05;;
64560;SDS011;50960;46.838;16.838;2023-05-17T19:51:52;3.65;;;2.42;;
64560;SDS011;50960;46.838;16.838;2023-05-17T19:54:19;2.35;;;2.15;;
64560;SDS011;50960;46.838;16.838;2023-05-17T19:56:46;3.25;;;2.10;;
64560;SDS011;50960;46.838;16.838;2023-05-17T19:59:12;4.53;;;2.17;;
64560;SDS011;50960;46.838;16.838;2023-05-17T20:01:39;3.30;;;2.38;;
64560;SDS011;50960;46.838;16.838;2023-05-17T20:04:05;2.75;;;2.30;;
64560;SDS011;50960;46.838;16.838;2023-05-17T20:06:31;3.22;;;2.35;;
64560;SDS011;50960;46.838;16.838;2023-05-17T20:08:58;3.20;;;1.90;;
64560;SDS011;50960;46.838;16.838;2023-05-17T20:11:24;4.10;;;2.13;;
64560;SDS011;50960;46.838;16.838;2023-05-17T20:13:51;2.75;;;2.03;;
64560;SDS011;50960;46.838;16.838;2023-05-17T20:16:17;3.55;;;2.20;;
64560;SDS011;50960;46.838;16.838;2023-05-17T20:18:43;3.65;;;2.28;;
64560;SDS011;50960;46.838;16.838;2023-05-17T20:21:10;3.75;;;2.58;;
64560;SDS011;50960;46.838;16.838;2023-05-17T20:23:39;3.15;;;2.70;;
64560;SDS011;50960;46.838;16.838;2023-05-17T20:26:07;8.13;;;2.42;;
64560;SDS011;50960;46.838;16.838;2023-05-17T20:28:40;2.80;;;2.40;;
64560;SDS011;50960;46.838;16.838;2023-05-17T20:31:11;3.67;;;2.67;;
64560;SDS011;50960;46.838;16.838;2023-05-17T20:33:38;3.53;;;2.60;;
64560;SDS011;50960;46.838;16.838;2023-05-17T20:36:05;2.80;;;2.50;;
64560;SDS011;50960;46.838;16.838;2023-05-17T20:38:34;3.53;;;2.20;;
64560;SDS011;50960;46.838;16.838;2023-05-17T20:41:00;2.92;;;2.55;;
64560;SDS011;50960;46.838;16.838;2023-05-17T20:43:27;3.97;;;2.70;;
64560;SDS011;50960;46.838;16.838;2023-05-17T20:45:54;3.63;;;2.47;;
64560;SDS011;50960;46.838;16.838;2023-05-17T20:48:20;3.25;;;2.95;;
64560;SDS011;50960;46.838;16.838;2023-05-17T20:50:47;2.58;;;2.38;;
64560;SDS011;50960;46.838;16.838;2023-05-17T20:53:13;3.60;;;2.80;;
64560;SDS011;50960;46.838;16.838;2023-05-17T20:55:40;3.40;;;2.75;;
64560;SDS011;50960;46.838;16.838;2023-05-17T20:58:09;2.90;;;2.42;;
64560;SDS011;50960;46.838;16.838;2023-05-17T21:00:35;4.30;;;2.72;;
64560;SDS011;50960;46.838;16.838;2023-05-17T21:03:02;3.08;;;2.78;;
64560;SDS011;50960;46.838;16.838;2023-05-17T21:05:29;3.75;;;2.70;;
64560;SDS011;50960;46.838;16.838;2023-05-17T21:08:01;3.42;;;2.83;;
64560;SDS011;50960;46.838;16.838;2023-05-17T21:10:27;3.30;;;2.70;;
64560;SDS011;50960;46.838;16.838;2023-05-17T21:12:54;4.13;;;2.80;;
64560;SDS011;50960;46.838;16.838;2023-05-17T21:15:20;3.17;;;2.47;;
64560;SDS011;50960;46.838;16.838;2023-05-17T21:17:47;2.70;;;2.50;;
64560;SDS011;50960;46.838;16.838;2023-05-17T21:20:13;2.78;;;2.55;;
64560;SDS011;50960;46.838;16.838;2023-05-17T21:22:40;5.47;;;3.00;;
64560;SDS011;50960;46.838;16.838;2023-05-17T21:25:06;5.53;;;3.03;;
64560;SDS011;50960;46.838;16.838;2023-05-17T21:27:33;4.15;;;2.72;;
64560;SDS011;50960;46.838;16.838;2023-05-17T21:29:59;3.08;;;2.33;;
64560;SDS011;50960;46.838;16.838;2023-05-17T21:32:26;3.10;;;2.80;;
64560;SDS011;50960;46.838;16.838;2023-05-17T21:34:52;3.55;;;2.60;;
64560;SDS011;50960;46.838;16.838;2023-05-17T21:37:18;3.60;;;2.60;;
64560;SDS011;50960;46.838;16.838;2023-05-17T21:39:45;4.95;;;3.47;;
64560;SDS011;50960;46.838;16.838;2023-05-17T21:42:11;5.88;;;2.65;;
64560;SDS011;50960;46.838;16.838;2023-05-17T21:44:38;5.13;;;2.78;;
64560;SDS011;50960;46.838;16.838;2023-05-17T21:47:04;4.25;;;2.70;;
64560;SDS011;50960;46.838;16.838;2023-05-17T21:49:31;3.38;;;2.70;;
64560;SDS011;50960;46.838;16.838;2023-05-17T21:51:57;3.08;;;2.40;;
64560;SDS011;50960;46.838;16.838;2023-05-17T21:54:24;4.22;;;2.60;;
64560;SDS011;50960;46.838;16.838;2023-05-17T21:56:50;3.17;;;2.80;;
64560;SDS011;50960;46.838;16.838;2023-05-17T21:59:17;3.60;;;2.50;;
64560;SDS011;50960;46.838;16.838;2023-05-17T22:01:43;2.90;;;2.20;;
64560;SDS011;50960;46.838;16.838;2023-05-17T22:04:09;7.55;;;2.47;;
64560;SDS011;50960;46.838;16.838;2023-05-17T22:06:36;3.00;;;2.50;;
64560;SDS011;50960;46.838;16.838;2023-05-17T22:09:02;3.22;;;2.50;;
64560;SDS011;50960;46.838;16.838;2023-05-17T22:11:30;4.22;;;3.08;;
64560;SDS011;50960;46.838;16.838;2023-05-17T22:13:57;3.45;;;2.67;;
64560;SDS011;50960;46.838;16.838;2023-05-17T22:16:23;4.65;;;2.70;;
64560;SDS011;50960;46.838;16.838;2023-05-17T22:18:50;3.60;;;2.72;;
64560;SDS011;50960;46.838;16.838;2023-05-17T22:21:19;3.22;;;2.50;;
64560;SDS011;50960;46.838;16.838;2023-05-17T22:23:46;2.78;;;2.40;;
64560;SDS011;50960;46.838;16.838;2023-05-17T22:26:13;2.95;;;2.65;;
64560;SDS011;50960;46.838;16.838;2023-05-17T22:28:39;3.85;;;2.28;;
64560;SDS011;50960;46.838;16.838;2023-05-17T22:31:06;3.97;;;2.80;;
64560;SDS011;50960;46.838;16.838;2023-05-17T22:33:32;3.47;;;2.95;;
64560;SDS011;50960;46.838;16.838;2023-05-17T22:36:00;4.10;;;2.70;;
64560;SDS011;50960;46.838;16.838;2023-05-17T22:38:28;4.43;;;2.80;;
64560;SDS011;50960;46.838;16.838;2023-05-17T22:40:54;2.70;;;2.35;;
64560;SDS011;50960;46.838;16.838;2023-05-17T22:43:20;3.80;;;2.92;;
64560;SDS011;50960;46.838;16.838;2023-05-17T22:45:48;5.03;;;3.13;;
64560;SDS011;50960;46.838;16.838;2023-05-17T22:48:14;3.08;;;2.75;;
64560;SDS011;50960;46.838;16.838;2023-05-17T22:50:40;3.80;;;2.95;;
64560;SDS011;50960;46.838;16.838;2023-05-17T22:53:07;4.40;;;3.30;;
64560;SDS011;50960;46.838;16.838;2023-05-17T22:55:35;3.40;;;2.90;;
64560;SDS011;50960;46.838;16.838;2023-05-17T22:58:02;2.95;;;2.72;;
64560;SDS011;50960;46.838;16.838;2023-05-17T23:00:28;4.75;;;3.13;;
64560;SDS011;50960;46.838;16.838;2023-05-17T23:02:54;4.80;;;3.28;;
64560;SDS011;50960;46.838;16.838;2023-05-17T23:05:21;4.10;;;2.88;;
64560;SDS011;50960;46.838;16.838;2023-05-17T23:07:47;5.13;;;2.90;;
